Nichiryu Maru — JG5632 — position and weather

sailwx.info

Track history (hours):
 
Tides and Currents Weather Stations Pressure Air Temp Water Temp Dewpoint Dewpoint Depression Visibility Wind Speed Wind Dir Waves Ship Positions

Nichiryu Maru

Last reported at 2017-Jan-23 06:33 UTC. Time now 2017-Jan-23 06:36 UTC.
Position N 35°19' E 139°39'.

Length 158 m; draft 6.5 m.

Type: Cargo ship. MMSI: 43100939.

Date/timePositionNaut miles runAvg speedWind from/ knotsBaromVisibWave heightAir tempDewpointWater temp
2017-Jan-23 06:33N 35°19' E 139°39'0 0.0
2017-Jan-23 05:33N 35°19' E 139°39'0 0.0
2017-Jan-23 04:33N 35°19' E 139°39'0 0.0
2017-Jan-23 03:33N 35°19' E 139°39'0 0.0
2017-Jan-23 02:33N 35°19' E 139°39'0 0.0
2017-Jan-23 01:33N 35°19' E 139°39'0 0.0
2017-Jan-23 00:30N 35°19' E 139°39'0 0.0
2017-Jan-22 23:33N 35°19' E 139°39'2 1.9
2017-Jan-22 22:33N 35°19' E 139°41'0 0.1
2017-Jan-22 21:33N 35°19' E 139°41'0 0.1
2017-Jan-22 20:30N 35°19' E 139°42'0 0.1
2017-Jan-22 19:33N 35°19' E 139°41'0 0.0
2017-Jan-22 18:33N 35°19' E 139°41'0 0.0
2017-Jan-22 17:30N 35°19' E 139°41'0 0.0
2017-Jan-22 16:33N 35°19' E 139°41'0 0.1
2017-Jan-22 15:33N 35°19' E 139°41'0 0.0
2017-Jan-22 14:30N 35°19' E 139°41'0 0.1
2017-Jan-22 13:33N 35°19' E 139°42'0 0.0
2017-Jan-22 12:33N 35°19' E 139°42'7 7.0
2017-Jan-22 11:33N 35°14' E 139°47'385 9.1
2017-Jan-20 17:05N 33°43' E 132°13'917.9
2017-Jan-20 16:33N 33°46' E 132°24'1817.7
2017-Jan-20 15:33N 33°57' E 132°41'11516.0
2017-Jan-20 08:23N 34°36' E 134°52'1416.7
2017-Jan-20 07:33N 34°36' E 135°09'6 5.4
2017-Jan-20 06:29N 34°41' E 135°13'0 0.0
2017-Jan-20 05:29N 34°41' E 135°13'0 0.0
2017-Jan-20 04:29N 34°41' E 135°13'2 1.8
2017-Jan-20 03:33N 34°40' E 135°15'1716.9
2017-Jan-20 02:33N 34°25' E 135°05'1918.9
2017-Jan-20 01:34N 34°07' E 135°01'23716.4
2017-Jan-19 11:06N 35°04' E 139°40'1017.7
2017-Jan-19 10:34N 35°12' E 139°46'9 8.9
2017-Jan-19 09:33N 35°19' E 139°39'0 0.0
2017-Jan-19 08:33N 35°19' E 139°39'0 0.0
2017-Jan-19 07:33N 35°19' E 139°39'0 0.0
2017-Jan-19 06:27N 35°19' E 139°39'0 0.0
2017-Jan-19 05:30N 35°19' E 139°39'0 0.0
2017-Jan-19 04:33N 35°19' E 139°39'0 0.1
2017-Jan-19 03:34N 35°19' E 139°39'9 9.5
2017-Jan-19 02:33N 35°12' E 139°47'  
2017-Jan-16 11:24N 35°04' E 139°40'1314.7
2017-Jan-16 10:33N 35°16' E 139°45'6 5.8
2017-Jan-16 09:31N 35°19' E 139°39'0 0.0
2017-Jan-16 08:28N 35°19' E 139°39'0 0.0
2017-Jan-16 07:31N 35°19' E 139°39'0 0.0
2017-Jan-16 06:28N 35°19' E 139°39'0 0.0
2017-Jan-16 05:31N 35°19' E 139°39'0 0.0
2017-Jan-16 04:31N 35°19' E 139°39'0 0.0
2017-Jan-16 03:25N 35°19' E 139°39'0 0.0
2017-Jan-16 02:25N 35°19' E 139°39'0 0.0
2017-Jan-16 01:31N 35°19' E 139°39'0 0.0
2017-Jan-16 00:31N 35°19' E 139°39'0 0.0
2017-Jan-15 23:33N 35°19' E 139°39'5 5.3
2017-Jan-15 22:33N 35°17' E 139°45'1313.3
2017-Jan-15 21:33N 35°04' E 139°45'  
2017-Jan-13 08:33N 34°37' E 134°58'1414.1
2017-Jan-13 07:33N 34°39' E 135°15'2 1.7
2017-Jan-13 06:26N 34°41' E 135°13'0 0.0
2017-Jan-13 05:33N 34°41' E 135°13'  
Track history (hours):
 
Tides and Currents Weather Stations Pressure Air Temp Water Temp Dewpoint Dewpoint Depression Visibility Wind Speed Wind Dir Waves Ship Positions

Nichiryu Maru

Last reported at 2017-Jan-23 06:33 UTC. Time now 2017-Jan-23 06:36 UTC.
Position N 35°19' E 139°39'.

Length 158 m; draft 6.5 m.

Type: Cargo ship. MMSI: 43100939.

Date/timePositionNaut miles runAvg speedWind from/ knotsBaromVisibWave heightAir tempDewpointWater temp
2017-Jan-23 06:33N 35°19' E 139°39'0 0.0
2017-Jan-23 05:33N 35°19' E 139°39'0 0.0
2017-Jan-23 04:33N 35°19' E 139°39'0 0.0
2017-Jan-23 03:33N 35°19' E 139°39'0 0.0
2017-Jan-23 02:33N 35°19' E 139°39'0 0.0
2017-Jan-23 01:33N 35°19' E 139°39'0 0.0
2017-Jan-23 00:30N 35°19' E 139°39'0 0.0
2017-Jan-22 23:33N 35°19' E 139°39'2 1.9
2017-Jan-22 22:33N 35°19' E 139°41'0 0.1
2017-Jan-22 21:33N 35°19' E 139°41'0 0.1
2017-Jan-22 20:30N 35°19' E 139°42'0 0.1
2017-Jan-22 19:33N 35°19' E 139°41'0 0.0
2017-Jan-22 18:33N 35°19' E 139°41'0 0.0
2017-Jan-22 17:30N 35°19' E 139°41'0 0.0
2017-Jan-22 16:33N 35°19' E 139°41'0 0.1
2017-Jan-22 15:33N 35°19' E 139°41'0 0.0
2017-Jan-22 14:30N 35°19' E 139°41'0 0.1
2017-Jan-22 13:33N 35°19' E 139°42'0 0.0
2017-Jan-22 12:33N 35°19' E 139°42'7 7.0
2017-Jan-22 11:33N 35°14' E 139°47'385 9.1
2017-Jan-20 17:05N 33°43' E 132°13'917.9
2017-Jan-20 16:33N 33°46' E 132°24'1817.7
2017-Jan-20 15:33N 33°57' E 132°41'11516.0
2017-Jan-20 08:23N 34°36' E 134°52'1416.7
2017-Jan-20 07:33N 34°36' E 135°09'6 5.4
2017-Jan-20 06:29N 34°41' E 135°13'0 0.0
2017-Jan-20 05:29N 34°41' E 135°13'0 0.0
2017-Jan-20 04:29N 34°41' E 135°13'2 1.8
2017-Jan-20 03:33N 34°40' E 135°15'1716.9
2017-Jan-20 02:33N 34°25' E 135°05'1918.9
2017-Jan-20 01:34N 34°07' E 135°01'23716.4
2017-Jan-19 11:06N 35°04' E 139°40'1017.7
2017-Jan-19 10:34N 35°12' E 139°46'9 8.9
2017-Jan-19 09:33N 35°19' E 139°39'0 0.0
2017-Jan-19 08:33N 35°19' E 139°39'0 0.0
2017-Jan-19 07:33N 35°19' E 139°39'0 0.0
2017-Jan-19 06:27N 35°19' E 139°39'0 0.0
2017-Jan-19 05:30N 35°19' E 139°39'0 0.0
2017-Jan-19 04:33N 35°19' E 139°39'0 0.1
2017-Jan-19 03:34N 35°19' E 139°39'9 9.5
2017-Jan-19 02:33N 35°12' E 139°47'  
2017-Jan-16 11:24N 35°04' E 139°40'1314.7
2017-Jan-16 10:33N 35°16' E 139°45'6 5.8
2017-Jan-16 09:31N 35°19' E 139°39'0 0.0
2017-Jan-16 08:28N 35°19' E 139°39'0 0.0
2017-Jan-16 07:31N 35°19' E 139°39'0 0.0
2017-Jan-16 06:28N 35°19' E 139°39'0 0.0
2017-Jan-16 05:31N 35°19' E 139°39'0 0.0
2017-Jan-16 04:31N 35°19' E 139°39'0 0.0
2017-Jan-16 03:25N 35°19' E 139°39'0 0.0
2017-Jan-16 02:25N 35°19' E 139°39'0 0.0
2017-Jan-16 01:31N 35°19' E 139°39'0 0.0
2017-Jan-16 00:31N 35°19' E 139°39'0 0.0
2017-Jan-15 23:33N 35°19' E 139°39'5 5.3
2017-Jan-15 22:33N 35°17' E 139°45'1313.3
2017-Jan-15 21:33N 35°04' E 139°45'  
2017-Jan-13 08:33N 34°37' E 134°58'1414.1
2017-Jan-13 07:33N 34°39' E 135°15'2 1.7
2017-Jan-13 06:26N 34°41' E 135°13'0 0.0
2017-Jan-13 05:33N 34°41' E 135°13'  

Dump ship's entire track history